sensor_id;sensor_type;location;lat;lon;timestamp;P1;durP1;ratioP1;P2;durP2;ratioP2
73550;SDS011;61816;53.582;10.096;2023-02-12T00:00:30;104.78;;;24.02;;
73550;SDS011;61816;53.582;10.096;2023-02-12T00:02:55;92.60;;;23.35;;
73550;SDS011;61816;53.582;10.096;2023-02-12T00:05:20;98.28;;;22.77;;
73550;SDS011;61816;53.582;10.096;2023-02-12T00:07:46;71.95;;;19.95;;
73550;SDS011;61816;53.582;10.096;2023-02-12T00:10:11;63.08;;;19.02;;
73550;SDS011;61816;53.582;10.096;2023-02-12T00:12:37;71.93;;;19.20;;
73550;SDS011;61816;53.582;10.096;2023-02-12T00:15:03;86.35;;;18.50;;
73550;SDS011;61816;53.582;10.096;2023-02-12T00:17:28;71.45;;;19.55;;
73550;SDS011;61816;53.582;10.096;2023-02-12T00:19:53;85.28;;;20.17;;
73550;SDS011;61816;53.582;10.096;2023-02-12T00:22:19;76.10;;;19.50;;
73550;SDS011;61816;53.582;10.096;2023-02-12T00:24:44;87.75;;;21.40;;
73550;SDS011;61816;53.582;10.096;2023-02-12T00:27:09;81.55;;;22.65;;
73550;SDS011;61816;53.582;10.096;2023-02-12T00:29:35;64.35;;;16.38;;
73550;SDS011;61816;53.582;10.096;2023-02-12T00:32:01;65.32;;;18.73;;
73550;SDS011;61816;53.582;10.096;2023-02-12T00:34:27;60.08;;;17.75;;
73550;SDS011;61816;53.582;10.096;2023-02-12T00:36:52;60.28;;;19.05;;
73550;SDS011;61816;53.582;10.096;2023-02-12T00:39:18;53.67;;;17.98;;
73550;SDS011;61816;53.582;10.096;2023-02-12T00:41:43;59.97;;;18.10;;
73550;SDS011;61816;53.582;10.096;2023-02-12T00:44:08;60.15;;;16.63;;
73550;SDS011;61816;53.582;10.096;2023-02-12T00:46:34;61.03;;;17.88;;
73550;SDS011;61816;53.582;10.096;2023-02-12T00:48:59;48.22;;;16.60;;
73550;SDS011;61816;53.582;10.096;2023-02-12T00:51:24;52.72;;;16.15;;
73550;SDS011;61816;53.582;10.096;2023-02-12T00:53:50;54.72;;;17.08;;
73550;SDS011;61816;53.582;10.096;2023-02-12T00:56:15;37.50;;;13.35;;
73550;SDS011;61816;53.582;10.096;2023-02-12T00:58:41;42.25;;;13.55;;
73550;SDS011;61816;53.582;10.096;2023-02-12T01:01:06;47.20;;;15.00;;
73550;SDS011;61816;53.582;10.096;2023-02-12T01:03:31;54.83;;;14.80;;
73550;SDS011;61816;53.582;10.096;2023-02-12T01:05:57;51.72;;;13.50;;
73550;SDS011;61816;53.582;10.096;2023-02-12T01:08:22;53.95;;;16.33;;
73550;SDS011;61816;53.582;10.096;2023-02-12T01:10:55;50.60;;;15.10;;
73550;SDS011;61816;53.582;10.096;2023-02-12T01:13:22;42.90;;;13.35;;
73550;SDS011;61816;53.582;10.096;2023-02-12T01:15:49;47.83;;;15.73;;
73550;SDS011;61816;53.582;10.096;2023-02-12T01:18:25;51.88;;;15.63;;
73550;SDS011;61816;53.582;10.096;2023-02-12T01:20:51;52.38;;;15.05;;
73550;SDS011;61816;53.582;10.096;2023-02-12T01:23:16;50.33;;;16.08;;
73550;SDS011;61816;53.582;10.096;2023-02-12T01:25:41;55.17;;;16.75;;
73550;SDS011;61816;53.582;10.096;2023-02-12T01:28:08;64.78;;;18.67;;
73550;SDS011;61816;53.582;10.096;2023-02-12T01:30:35;55.17;;;17.23;;
73550;SDS011;61816;53.582;10.096;2023-02-12T01:33:00;50.53;;;16.48;;
73550;SDS011;61816;53.582;10.096;2023-02-12T01:35:25;50.38;;;16.23;;
73550;SDS011;61816;53.582;10.096;2023-02-12T01:37:51;51.70;;;15.73;;
73550;SDS011;61816;53.582;10.096;2023-02-12T01:40:16;50.95;;;14.85;;
73550;SDS011;61816;53.582;10.096;2023-02-12T01:42:42;54.55;;;16.67;;
73550;SDS011;61816;53.582;10.096;2023-02-12T01:47:39;48.53;;;15.63;;
73550;SDS011;61816;53.582;10.096;2023-02-12T01:50:06;43.50;;;16.90;;
73550;SDS011;61816;53.582;10.096;2023-02-12T01:52:35;47.53;;;16.35;;
73550;SDS011;61816;53.582;10.096;2023-02-12T01:55:05;51.70;;;17.67;;
73550;SDS011;61816;53.582;10.096;2023-02-12T01:57:33;49.97;;;19.33;;
73550;SDS011;61816;53.582;10.096;2023-02-12T02:00:03;41.28;;;16.63;;
73550;SDS011;61816;53.582;10.096;2023-02-12T02:02:34;36.28;;;16.33;;
73550;SDS011;61816;53.582;10.096;2023-02-12T02:05:02;41.25;;;16.05;;
73550;SDS011;61816;53.582;10.096;2023-02-12T02:07:28;36.45;;;14.13;;
73550;SDS011;61816;53.582;10.096;2023-02-12T02:09:54;29.88;;;13.93;;
73550;SDS011;61816;53.582;10.096;2023-02-12T02:12:20;36.78;;;13.93;;
73550;SDS011;61816;53.582;10.096;2023-02-12T02:15:04;32.60;;;13.23;;
73550;SDS011;61816;53.582;10.096;2023-02-12T02:17:50;36.45;;;14.25;;
73550;SDS011;61816;53.582;10.096;2023-02-12T02:33:40;28.33;;;11.10;;
73550;SDS011;61816;53.582;10.096;2023-02-12T02:36:26;28.35;;;10.25;;
73550;SDS011;61816;53.582;10.096;2023-02-12T02:39:04;29.77;;;10.98;;
73550;SDS011;61816;53.582;10.096;2023-02-12T02:41:40;30.58;;;9.88;;
73550;SDS011;61816;53.582;10.096;2023-02-12T02:44:14;35.28;;;11.57;;
73550;SDS011;61816;53.582;10.096;2023-02-12T02:46:46;31.20;;;11.32;;
73550;SDS011;61816;53.582;10.096;2023-02-12T02:49:22;31.85;;;12.15;;
73550;SDS011;61816;53.582;10.096;2023-02-12T02:51:54;34.45;;;12.55;;
73550;SDS011;61816;53.582;10.096;2023-02-12T02:54:29;31.17;;;12.38;;
73550;SDS011;61816;53.582;10.096;2023-02-12T02:57:07;30.23;;;10.52;;
73550;SDS011;61816;53.582;10.096;2023-02-12T02:59:39;35.90;;;11.80;;
73550;SDS011;61816;53.582;10.096;2023-02-12T03:02:12;34.65;;;11.65;;
73550;SDS011;61816;53.582;10.096;2023-02-12T03:04:45;35.30;;;11.93;;
73550;SDS011;61816;53.582;10.096;2023-02-12T03:12:36;29.85;;;10.57;;
73550;SDS011;61816;53.582;10.096;2023-02-12T03:15:07;28.48;;;10.98;;
73550;SDS011;61816;53.582;10.096;2023-02-12T03:17:43;38.13;;;12.15;;
73550;SDS011;61816;53.582;10.096;2023-02-12T03:20:16;34.05;;;11.80;;
73550;SDS011;61816;53.582;10.096;2023-02-12T03:22:49;33.08;;;11.98;;
73550;SDS011;61816;53.582;10.096;2023-02-12T03:25:24;35.05;;;12.18;;
73550;SDS011;61816;53.582;10.096;2023-02-12T03:30:46;33.92;;;12.38;;
73550;SDS011;61816;53.582;10.096;2023-02-12T03:35:58;33.67;;;11.98;;
73550;SDS011;61816;53.582;10.096;2023-02-12T03:41:08;38.05;;;12.38;;
73550;SDS011;61816;53.582;10.096;2023-02-12T03:46:33;31.80;;;10.63;;
73550;SDS011;61816;53.582;10.096;2023-02-12T03:51:44;30.92;;;10.05;;
73550;SDS011;61816;53.582;10.096;2023-02-12T03:54:11;43.72;;;12.73;;
73550;SDS011;61816;53.582;10.096;2023-02-12T03:56:48;52.97;;;12.90;;
73550;SDS011;61816;53.582;10.096;2023-02-12T03:59:18;35.28;;;11.23;;
73550;SDS011;61816;53.582;10.096;2023-02-12T04:01:45;62.10;;;14.95;;
73550;SDS011;61816;53.582;10.096;2023-02-12T04:04:12;52.58;;;13.70;;
73550;SDS011;61816;53.582;10.096;2023-02-12T04:06:38;55.28;;;13.55;;
73550;SDS011;61816;53.582;10.096;2023-02-12T04:09:06;54.30;;;15.55;;
73550;SDS011;61816;53.582;10.096;2023-02-12T04:14:25;58.83;;;14.65;;
73550;SDS011;61816;53.582;10.096;2023-02-12T04:17:14;54.80;;;14.68;;
73550;SDS011;61816;53.582;10.096;2023-02-12T04:20:02;60.97;;;16.40;;
73550;SDS011;61816;53.582;10.096;2023-02-12T04:28:07;86.00;;;19.88;;
73550;SDS011;61816;53.582;10.096;2023-02-12T04:30:50;101.63;;;19.50;;
73550;SDS011;61816;53.582;10.096;2023-02-12T04:33:24;75.07;;;17.63;;
73550;SDS011;61816;53.582;10.096;2023-02-12T04:35:59;120.25;;;22.95;;
73550;SDS011;61816;53.582;10.096;2023-02-12T04:38:31;82.45;;;17.65;;
73550;SDS011;61816;53.582;10.096;2023-02-12T04:41:04;106.35;;;18.50;;
73550;SDS011;61816;53.582;10.096;2023-02-12T04:43:31;97.65;;;17.95;;
73550;SDS011;61816;53.582;10.096;2023-02-12T04:45:59;125.10;;;18.27;;
73550;SDS011;61816;53.582;10.096;2023-02-12T04:48:25;124.65;;;18.27;;
73550;SDS011;61816;53.582;10.096;2023-02-12T04:50:51;201.30;;;20.33;;
73550;SDS011;61816;53.582;10.096;2023-02-12T04:53:16;226.60;;;20.33;;
73550;SDS011;61816;53.582;10.096;2023-02-12T04:55:42;212.13;;;21.48;;
73550;SDS011;61816;53.582;10.096;2023-02-12T04:58:08;182.73;;;19.52;;
73550;SDS011;61816;53.582;10.096;2023-02-12T05:00:33;210.85;;;20.17;;
73550;SDS011;61816;53.582;10.096;2023-02-12T05:02:59;286.17;;;23.63;;
73550;SDS011;61816;53.582;10.096;2023-02-12T05:05:25;250.00;;;21.83;;
73550;SDS011;61816;53.582;10.096;2023-02-12T05:07:51;303.77;;;24.48;;
73550;SDS011;61816;53.582;10.096;2023-02-12T05:10:17;178.80;;;21.15;;
73550;SDS011;61816;53.582;10.096;2023-02-12T05:12:43;200.52;;;20.02;;
73550;SDS011;61816;53.582;10.096;2023-02-12T05:15:08;220.25;;;21.48;;
73550;SDS011;61816;53.582;10.096;2023-02-12T05:17:34;355.05;;;27.63;;
73550;SDS011;61816;53.582;10.096;2023-02-12T05:19:59;267.52;;;20.33;;
73550;SDS011;61816;53.582;10.096;2023-02-12T05:22:24;388.83;;;22.50;;
73550;SDS011;61816;53.582;10.096;2023-02-12T05:24:50;452.42;;;29.52;;
73550;SDS011;61816;53.582;10.096;2023-02-12T05:27:15;374.42;;;23.98;;
73550;SDS011;61816;53.582;10.096;2023-02-12T05:29:41;376.75;;;26.08;;
73550;SDS011;61816;53.582;10.096;2023-02-12T05:32:07;342.27;;;25.83;;
73550;SDS011;61816;53.582;10.096;2023-02-12T05:34:32;476.92;;;32.80;;
73550;SDS011;61816;53.582;10.096;2023-02-12T05:36:58;431.85;;;29.83;;
73550;SDS011;61816;53.582;10.096;2023-02-12T05:39:23;469.65;;;36.25;;
73550;SDS011;61816;53.582;10.096;2023-02-12T05:41:49;438.30;;;33.55;;
73550;SDS011;61816;53.582;10.096;2023-02-12T05:44:14;588.72;;;40.30;;
73550;SDS011;61816;53.582;10.096;2023-02-12T05:46:40;439.83;;;35.60;;
73550;SDS011;61816;53.582;10.096;2023-02-12T05:49:06;590.90;;;43.30;;
73550;SDS011;61816;53.582;10.096;2023-02-12T05:51:33;440.38;;;37.75;;
73550;SDS011;61816;53.582;10.096;2023-02-12T05:53:59;414.35;;;35.72;;
73550;SDS011;61816;53.582;10.096;2023-02-12T05:56:40;436.17;;;40.63;;
73550;SDS011;61816;53.582;10.096;2023-02-12T05:59:18;532.28;;;43.45;;
73550;SDS011;61816;53.582;10.096;2023-02-12T06:01:46;450.00;;;41.78;;
73550;SDS011;61816;53.582;10.096;2023-02-12T06:04:15;359.23;;;38.53;;
73550;SDS011;61816;53.582;10.096;2023-02-12T06:06:41;399.17;;;40.70;;
73550;SDS011;61816;53.582;10.096;2023-02-12T06:09:08;545.85;;;47.15;;
73550;SDS011;61816;53.582;10.096;2023-02-12T06:11:34;459.02;;;40.67;;
73550;SDS011;61816;53.582;10.096;2023-02-12T06:14:01;408.23;;;39.40;;
73550;SDS011;61816;53.582;10.096;2023-02-12T06:16:28;433.10;;;41.28;;
73550;SDS011;61816;53.582;10.096;2023-02-12T06:18:54;395.88;;;39.30;;
73550;SDS011;61816;53.582;10.096;2023-02-12T06:21:21;363.65;;;36.85;;
73550;SDS011;61816;53.582;10.096;2023-02-12T06:23:48;314.85;;;40.05;;
73550;SDS011;61816;53.582;10.096;2023-02-12T06:26:14;288.63;;;33.72;;
73550;SDS011;61816;53.582;10.096;2023-02-12T06:28:40;210.80;;;30.52;;
73550;SDS011;61816;53.582;10.096;2023-02-12T06:31:16;299.90;;;34.88;;
73550;SDS011;61816;53.582;10.096;2023-02-12T06:33:49;328.42;;;38.25;;
73550;SDS011;61816;53.582;10.096;2023-02-12T06:36:15;306.08;;;35.75;;
73550;SDS011;61816;53.582;10.096;2023-02-12T06:38:41;404.83;;;43.75;;
73550;SDS011;61816;53.582;10.096;2023-02-12T06:41:07;344.65;;;39.28;;
73550;SDS011;61816;53.582;10.096;2023-02-12T06:43:32;234.35;;;32.47;;
73550;SDS011;61816;53.582;10.096;2023-02-12T06:46:01;244.43;;;34.75;;
73550;SDS011;61816;53.582;10.096;2023-02-12T06:48:27;368.83;;;40.45;;
73550;SDS011;61816;53.582;10.096;2023-02-12T06:50:54;430.50;;;43.78;;
73550;SDS011;61816;53.582;10.096;2023-02-12T06:53:19;280.17;;;34.42;;
73550;SDS011;61816;53.582;10.096;2023-02-12T06:55:45;392.85;;;42.65;;
73550;SDS011;61816;53.582;10.096;2023-02-12T06:58:10;342.25;;;40.30;;
73550;SDS011;61816;53.582;10.096;2023-02-12T07:00:35;338.38;;;36.95;;
73550;SDS011;61816;53.582;10.096;2023-02-12T07:03:01;274.67;;;34.58;;
73550;SDS011;61816;53.582;10.096;2023-02-12T07:05:26;288.50;;;34.60;;
73550;SDS011;61816;53.582;10.096;2023-02-12T07:07:51;234.65;;;31.92;;
73550;SDS011;61816;53.582;10.096;2023-02-12T07:10:17;274.98;;;33.42;;
73550;SDS011;61816;53.582;10.096;2023-02-12T07:12:43;356.48;;;44.88;;
73550;SDS011;61816;53.582;10.096;2023-02-12T07:15:09;264.35;;;35.83;;
73550;SDS011;61816;53.582;10.096;2023-02-12T07:17:34;277.33;;;37.83;;
73550;SDS011;61816;53.582;10.096;2023-02-12T07:20:00;264.40;;;37.53;;
73550;SDS011;61816;53.582;10.096;2023-02-12T07:22:25;286.45;;;37.13;;
73550;SDS011;61816;53.582;10.096;2023-02-12T07:24:50;348.50;;;43.35;;
73550;SDS011;61816;53.582;10.096;2023-02-12T07:27:16;260.77;;;34.10;;
73550;SDS011;61816;53.582;10.096;2023-02-12T07:29:41;313.90;;;38.55;;
73550;SDS011;61816;53.582;10.096;2023-02-12T07:32:07;317.45;;;38.83;;
73550;SDS011;61816;53.582;10.096;2023-02-12T07:34:32;392.80;;;39.88;;
73550;SDS011;61816;53.582;10.096;2023-02-12T07:36:57;395.60;;;39.22;;
73550;SDS011;61816;53.582;10.096;2023-02-12T07:39:23;430.90;;;39.45;;
73550;SDS011;61816;53.582;10.096;2023-02-12T07:41:48;460.77;;;44.15;;
73550;SDS011;61816;53.582;10.096;2023-02-12T07:44:13;448.90;;;41.72;;
73550;SDS011;61816;53.582;10.096;2023-02-12T07:46:40;532.47;;;49.30;;
73550;SDS011;61816;53.582;10.096;2023-02-12T07:49:14;435.13;;;36.78;;
73550;SDS011;61816;53.582;10.096;2023-02-12T07:51:41;534.83;;;44.22;;
73550;SDS011;61816;53.582;10.096;2023-02-12T07:54:07;508.52;;;40.03;;
73550;SDS011;61816;53.582;10.096;2023-02-12T07:56:34;561.50;;;43.00;;
73550;SDS011;61816;53.582;10.096;2023-02-12T07:59:09;574.08;;;44.17;;
73550;SDS011;61816;53.582;10.096;2023-02-12T08:01:41;609.30;;;48.75;;
73550;SDS011;61816;53.582;10.096;2023-02-12T08:04:10;528.53;;;41.63;;
73550;SDS011;61816;53.582;10.096;2023-02-12T08:06:38;575.92;;;47.35;;
73550;SDS011;61816;53.582;10.096;2023-02-12T08:09:10;531.67;;;44.13;;
73550;SDS011;61816;53.582;10.096;2023-02-12T08:11:37;519.20;;;50.60;;
73550;SDS011;61816;53.582;10.096;2023-02-12T08:14:03;583.65;;;45.58;;
73550;SDS011;61816;53.582;10.096;2023-02-12T08:16:30;512.17;;;44.38;;
73550;SDS011;61816;53.582;10.096;2023-02-12T08:18:59;494.80;;;43.10;;
73550;SDS011;61816;53.582;10.096;2023-02-12T08:21:26;471.90;;;43.78;;
73550;SDS011;61816;53.582;10.096;2023-02-12T08:23:55;512.75;;;47.15;;
73550;SDS011;61816;53.582;10.096;2023-02-12T08:28:49;450.30;;;43.22;;
73550;SDS011;61816;53.582;10.096;2023-02-12T08:31:39;351.00;;;41.45;;
73550;SDS011;61816;53.582;10.096;2023-02-12T08:34:16;462.73;;;45.13;;
73550;SDS011;61816;53.582;10.096;2023-02-12T08:36:45;421.08;;;47.35;;
73550;SDS011;61816;53.582;10.096;2023-02-12T08:39:12;523.80;;;55.53;;
73550;SDS011;61816;53.582;10.096;2023-02-12T08:41:38;371.95;;;43.20;;
73550;SDS011;61816;53.582;10.096;2023-02-12T08:44:04;347.10;;;46.10;;
73550;SDS011;61816;53.582;10.096;2023-02-12T08:46:31;325.83;;;46.47;;
73550;SDS011;61816;53.582;10.096;2023-02-12T08:49:00;212.95;;;39.10;;
73550;SDS011;61816;53.582;10.096;2023-02-12T08:51:31;166.20;;;33.50;;
73550;SDS011;61816;53.582;10.096;2023-02-12T08:54:00;194.15;;;38.80;;
73550;SDS011;61816;53.582;10.096;2023-02-12T08:56:28;189.65;;;36.70;;
73550;SDS011;61816;53.582;10.096;2023-02-12T08:58:57;217.63;;;38.38;;
73550;SDS011;61816;53.582;10.096;2023-02-12T09:01:25;154.20;;;32.95;;
73550;SDS011;61816;53.582;10.096;2023-02-12T09:03:52;199.07;;;40.00;;
73550;SDS011;61816;53.582;10.096;2023-02-12T09:06:19;198.60;;;40.65;;
73550;SDS011;61816;53.582;10.096;2023-02-12T09:08:45;172.55;;;35.72;;
73550;SDS011;61816;53.582;10.096;2023-02-12T09:11:13;158.80;;;34.28;;
73550;SDS011;61816;53.582;10.096;2023-02-12T09:13:44;131.63;;;30.15;;
73550;SDS011;61816;53.582;10.096;2023-02-12T09:16:11;186.23;;;36.22;;
73550;SDS011;61816;53.582;10.096;2023-02-12T09:18:37;167.85;;;35.28;;
73550;SDS011;61816;53.582;10.096;2023-02-12T09:21:08;157.18;;;33.25;;
73550;SDS011;61816;53.582;10.096;2023-02-12T09:26:05;157.93;;;34.20;;
73550;SDS011;61816;53.582;10.096;2023-02-12T09:28:32;143.93;;;32.60;;
73550;SDS011;61816;53.582;10.096;2023-02-12T09:30:57;138.50;;;32.70;;
73550;SDS011;61816;53.582;10.096;2023-02-12T09:33:23;181.00;;;37.17;;
73550;SDS011;61816;53.582;10.096;2023-02-12T09:35:48;132.55;;;31.40;;
73550;SDS011;61816;53.582;10.096;2023-02-12T09:38:14;146.68;;;34.28;;
73550;SDS011;61816;53.582;10.096;2023-02-12T09:41:00;173.43;;;38.67;;
73550;SDS011;61816;53.582;10.096;2023-02-12T09:49:07;169.77;;;36.90;;
73550;SDS011;61816;53.582;10.096;2023-02-12T09:51:35;166.50;;;37.90;;
73550;SDS011;61816;53.582;10.096;2023-02-12T09:54:10;190.55;;;41.10;;
73550;SDS011;61816;53.582;10.096;2023-02-12T09:56:38;156.15;;;37.88;;
73550;SDS011;61816;53.582;10.096;2023-02-12T09:59:08;148.65;;;34.55;;
73550;SDS011;61816;53.582;10.096;2023-02-12T10:01:40;164.00;;;36.38;;
73550;SDS011;61816;53.582;10.096;2023-02-12T10:04:05;169.98;;;39.03;;
73550;SDS011;61816;53.582;10.096;2023-02-12T10:06:40;140.23;;;32.88;;
73550;SDS011;61816;53.582;10.096;2023-02-12T10:12:03;180.57;;;38.97;;
73550;SDS011;61816;53.582;10.096;2023-02-12T10:15:01;199.10;;;42.00;;
73550;SDS011;61816;53.582;10.096;2023-02-12T10:17:52;155.18;;;36.53;;
73550;SDS011;61816;53.582;10.096;2023-02-12T10:20:36;176.48;;;38.95;;
73550;SDS011;61816;53.582;10.096;2023-02-12T10:25:57;189.20;;;41.58;;
73550;SDS011;61816;53.582;10.096;2023-02-12T10:28:32;163.55;;;41.25;;
73550;SDS011;61816;53.582;10.096;2023-02-12T10:33:53;188.98;;;44.15;;
73550;SDS011;61816;53.582;10.096;2023-02-12T10:38:54;192.27;;;44.47;;
73550;SDS011;61816;53.582;10.096;2023-02-12T10:41:26;204.57;;;49.42;;
73550;SDS011;61816;53.582;10.096;2023-02-12T10:43:54;216.07;;;48.88;;
73550;SDS011;61816;53.582;10.096;2023-02-12T10:46:20;205.73;;;48.97;;
73550;SDS011;61816;53.582;10.096;2023-02-12T10:48:47;189.30;;;47.03;;
73550;SDS011;61816;53.582;10.096;2023-02-12T10:57:05;186.40;;;46.55;;
73550;SDS011;61816;53.582;10.096;2023-02-12T10:59:33;230.80;;;51.80;;
73550;SDS011;61816;53.582;10.096;2023-02-12T11:01:59;193.82;;;45.38;;
73550;SDS011;61816;53.582;10.096;2023-02-12T11:04:25;235.10;;;47.67;;
73550;SDS011;61816;53.582;10.096;2023-02-12T11:07:01;246.23;;;53.70;;
73550;SDS011;61816;53.582;10.096;2023-02-12T11:09:37;213.55;;;47.88;;
73550;SDS011;61816;53.582;10.096;2023-02-12T11:15:16;189.25;;;43.97;;
73550;SDS011;61816;53.582;10.096;2023-02-12T11:17:45;247.88;;;53.13;;
73550;SDS011;61816;53.582;10.096;2023-02-12T11:23:23;215.48;;;49.97;;
73550;SDS011;61816;53.582;10.096;2023-02-12T11:25:54;216.32;;;50.22;;
73550;SDS011;61816;53.582;10.096;2023-02-12T11:28:23;165.98;;;43.92;;
73550;SDS011;61816;53.582;10.096;2023-02-12T11:33:20;136.63;;;38.17;;
73550;SDS011;61816;53.582;10.096;2023-02-12T11:38:26;122.10;;;35.63;;
73550;SDS011;61816;53.582;10.096;2023-02-12T11:41:01;131.88;;;36.20;;
73550;SDS011;61816;53.582;10.096;2023-02-12T11:43:31;107.05;;;34.85;;
73550;SDS011;61816;53.582;10.096;2023-02-12T11:46:01;143.75;;;36.88;;
73550;SDS011;61816;53.582;10.096;2023-02-12T11:48:29;133.52;;;37.90;;
73550;SDS011;61816;53.582;10.096;2023-02-12T11:51:02;93.88;;;30.95;;
73550;SDS011;61816;53.582;10.096;2023-02-12T11:53:31;95.82;;;33.20;;
73550;SDS011;61816;53.582;10.096;2023-02-12T11:56:01;118.07;;;36.67;;
73550;SDS011;61816;53.582;10.096;2023-02-12T11:58:29;124.15;;;36.63;;
73550;SDS011;61816;53.582;10.096;2023-02-12T12:06:51;153.32;;;38.90;;
73550;SDS011;61816;53.582;10.096;2023-02-12T12:09:27;146.75;;;36.88;;
73550;SDS011;61816;53.582;10.096;2023-02-12T12:12:14;138.40;;;36.90;;
73550;SDS011;61816;53.582;10.096;2023-02-12T12:14:48;136.77;;;35.85;;
73550;SDS011;61816;53.582;10.096;2023-02-12T12:20:21;119.90;;;30.95;;
73550;SDS011;61816;53.582;10.096;2023-02-12T12:22:56;127.05;;;33.25;;
73550;SDS011;61816;53.582;10.096;2023-02-12T12:25:35;114.28;;;30.10;;
73550;SDS011;61816;53.582;10.096;2023-02-12T12:28:10;92.97;;;28.05;;
73550;SDS011;61816;53.582;10.096;2023-02-12T12:33:57;97.30;;;29.15;;
73550;SDS011;61816;53.582;10.096;2023-02-12T12:39:47;121.35;;;30.40;;
73550;SDS011;61816;53.582;10.096;2023-02-12T12:53:31;76.45;;;24.63;;
73550;SDS011;61816;53.582;10.096;2023-02-12T13:07:19;89.28;;;26.98;;
73550;SDS011;61816;53.582;10.096;2023-02-12T13:10:13;63.53;;;20.90;;
73550;SDS011;61816;53.582;10.096;2023-02-12T13:15:30;60.25;;;23.20;;
73550;SDS011;61816;53.582;10.096;2023-02-12T13:18:10;71.72;;;22.50;;
73550;SDS011;61816;53.582;10.096;2023-02-12T13:28:52;52.72;;;21.05;;
73550;SDS011;61816;53.582;10.096;2023-02-12T13:31:21;46.53;;;17.70;;
73550;SDS011;61816;53.582;10.096;2023-02-12T13:33:52;50.78;;;21.02;;
73550;SDS011;61816;53.582;10.096;2023-02-12T13:36:23;40.55;;;16.35;;
73550;SDS011;61816;53.582;10.096;2023-02-12T13:39:11;42.67;;;16.30;;
73550;SDS011;61816;53.582;10.096;2023-02-12T13:41:46;46.33;;;19.35;;
73550;SDS011;61816;53.582;10.096;2023-02-12T13:44:28;36.78;;;14.35;;
73550;SDS011;61816;53.582;10.096;2023-02-12T13:47:10;38.25;;;16.73;;
73550;SDS011;61816;53.582;10.096;2023-02-12T13:49:42;40.50;;;17.63;;
73550;SDS011;61816;53.582;10.096;2023-02-12T13:52:48;41.60;;;16.00;;
73550;SDS011;61816;53.582;10.096;2023-02-12T13:55:46;52.88;;;18.42;;
73550;SDS011;61816;53.582;10.096;2023-02-12T14:00:56;63.58;;;21.50;;
73550;SDS011;61816;53.582;10.096;2023-02-12T14:03:25;47.10;;;15.05;;
73550;SDS011;61816;53.582;10.096;2023-02-12T14:06:07;33.15;;;13.52;;
73550;SDS011;61816;53.582;10.096;2023-02-12T14:08:37;23.30;;;10.70;;
73550;SDS011;61816;53.582;10.096;2023-02-12T14:11:11;24.02;;;11.25;;
73550;SDS011;61816;53.582;10.096;2023-02-12T14:21:58;29.02;;;12.80;;
73550;SDS011;61816;53.582;10.096;2023-02-12T14:24:57;23.33;;;11.82;;
73550;SDS011;61816;53.582;10.096;2023-02-12T14:38:55;21.42;;;10.50;;
73550;SDS011;61816;53.582;10.096;2023-02-12T14:41:13;31.20;;;11.80;;
73550;SDS011;61816;53.582;10.096;2023-02-12T14:44:36;24.60;;;10.45;;
73550;SDS011;61816;53.582;10.096;2023-02-12T14:47:04;30.85;;;12.60;;
73550;SDS011;61816;53.582;10.096;2023-02-12T14:49:38;32.50;;;14.15;;
73550;SDS011;61816;53.582;10.096;2023-02-12T14:57:19;34.08;;;14.50;;
73550;SDS011;61816;53.582;10.096;2023-02-12T14:59:58;37.10;;;13.88;;
73550;SDS011;61816;53.582;10.096;2023-02-12T15:02:44;29.63;;;13.32;;
73550;SDS011;61816;53.582;10.096;2023-02-12T15:05:17;30.88;;;13.32;;
73550;SDS011;61816;53.582;10.096;2023-02-12T15:07:59;32.65;;;13.35;;
73550;SDS011;61816;53.582;10.096;2023-02-12T15:10:39;33.45;;;13.40;;
73550;SDS011;61816;53.582;10.096;2023-02-12T15:13:23;30.23;;;14.13;;
73550;SDS011;61816;53.582;10.096;2023-02-12T15:24:00;32.53;;;13.93;;
73550;SDS011;61816;53.582;10.096;2023-02-12T15:26:32;36.53;;;15.43;;
73550;SDS011;61816;53.582;10.096;2023-02-12T15:29:02;36.38;;;14.68;;
73550;SDS011;61816;53.582;10.096;2023-02-12T15:31:29;32.55;;;14.05;;
73550;SDS011;61816;53.582;10.096;2023-02-12T15:33:56;33.92;;;14.77;;
73550;SDS011;61816;53.582;10.096;2023-02-12T15:36:24;35.95;;;14.30;;
73550;SDS011;61816;53.582;10.096;2023-02-12T15:39:01;19.60;;;10.45;;
73550;SDS011;61816;53.582;10.096;2023-02-12T15:44:01;31.45;;;12.68;;
73550;SDS011;61816;53.582;10.096;2023-02-12T15:46:51;24.00;;;11.35;;
73550;SDS011;61816;53.582;10.096;2023-02-12T15:49:29;21.90;;;10.68;;
73550;SDS011;61816;53.582;10.096;2023-02-12T15:51:56;21.00;;;11.07;;
73550;SDS011;61816;53.582;10.096;2023-02-12T15:54:23;20.48;;;9.68;;
73550;SDS011;61816;53.582;10.096;2023-02-12T15:56:49;17.85;;;8.88;;
73550;SDS011;61816;53.582;10.096;2023-02-12T15:59:19;14.10;;;8.07;;
73550;SDS011;61816;53.582;10.096;2023-02-12T16:01:59;16.30;;;9.05;;
73550;SDS011;61816;53.582;10.096;2023-02-12T16:04:33;12.23;;;6.43;;
73550;SDS011;61816;53.582;10.096;2023-02-12T16:07:05;11.88;;;6.80;;
73550;SDS011;61816;53.582;10.096;2023-02-12T16:09:32;10.25;;;5.93;;
73550;SDS011;61816;53.582;10.096;2023-02-12T16:12:00;12.20;;;6.53;;
73550;SDS011;61816;53.582;10.096;2023-02-12T16:17:28;13.13;;;6.80;;
73550;SDS011;61816;53.582;10.096;2023-02-12T16:19:58;10.70;;;6.53;;
73550;SDS011;61816;53.582;10.096;2023-02-12T16:24:58;15.23;;;7.13;;
73550;SDS011;61816;53.582;10.096;2023-02-12T16:27:28;14.45;;;7.00;;
73550;SDS011;61816;53.582;10.096;2023-02-12T16:29:58;13.50;;;7.45;;
73550;SDS011;61816;53.582;10.096;2023-02-12T16:35:05;12.98;;;7.85;;
73550;SDS011;61816;53.582;10.096;2023-02-12T16:37:48;13.45;;;8.30;;
73550;SDS011;61816;53.582;10.096;2023-02-12T16:40:24;13.00;;;7.65;;
73550;SDS011;61816;53.582;10.096;2023-02-12T16:43:01;11.00;;;6.88;;
73550;SDS011;61816;53.582;10.096;2023-02-12T16:48:11;12.02;;;7.07;;
73550;SDS011;61816;53.582;10.096;2023-02-12T16:50:51;16.38;;;7.82;;
73550;SDS011;61816;53.582;10.096;2023-02-12T16:53:22;11.18;;;7.43;;
73550;SDS011;61816;53.582;10.096;2023-02-12T16:55:54;11.40;;;6.88;;
73550;SDS011;61816;53.582;10.096;2023-02-12T16:58:20;13.18;;;7.15;;
73550;SDS011;61816;53.582;10.096;2023-02-12T17:00:45;10.60;;;7.13;;
73550;SDS011;61816;53.582;10.096;2023-02-12T17:03:11;12.40;;;7.28;;
73550;SDS011;61816;53.582;10.096;2023-02-12T17:05:41;15.05;;;8.20;;
73550;SDS011;61816;53.582;10.096;2023-02-12T17:08:12;14.27;;;7.70;;
73550;SDS011;61816;53.582;10.096;2023-02-12T17:10:39;13.38;;;8.10;;
73550;SDS011;61816;53.582;10.096;2023-02-12T17:13:04;15.65;;;8.55;;
73550;SDS011;61816;53.582;10.096;2023-02-12T17:15:32;15.52;;;9.02;;
73550;SDS011;61816;53.582;10.096;2023-02-12T17:18:02;19.70;;;10.20;;
73550;SDS011;61816;53.582;10.096;2023-02-12T17:20:28;21.75;;;11.52;;